sensor_id;sensor_type;location;lat;lon;timestamp;temperature;humidity
48998;DHT22;34807;51.456;7.244;2023-06-10T00:00:15;21.60;72.00
48998;DHT22;34807;51.456;7.244;2023-06-10T00:02:41;21.60;72.10
48998;DHT22;34807;51.456;7.244;2023-06-10T00:05:08;21.60;72.00
48998;DHT22;34807;51.456;7.244;2023-06-10T00:07:33;21.50;72.20
48998;DHT22;34807;51.456;7.244;2023-06-10T00:10:04;21.50;72.30
48998;DHT22;34807;51.456;7.244;2023-06-10T00:12:30;21.50;72.10
48998;DHT22;34807;51.456;7.244;2023-06-10T00:14:56;21.50;72.40
48998;DHT22;34807;51.456;7.244;2023-06-10T00:17:21;21.40;72.20
48998;DHT22;34807;51.456;7.244;2023-06-10T00:19:48;21.40;72.40
48998;DHT22;34807;51.456;7.244;2023-06-10T00:22:15;21.40;72.40
48998;DHT22;34807;51.456;7.244;2023-06-10T00:24:41;21.30;72.50
48998;DHT22;34807;51.456;7.244;2023-06-10T00:27:07;21.30;72.50
48998;DHT22;34807;51.456;7.244;2023-06-10T00:29:33;21.30;72.50
48998;DHT22;34807;51.456;7.244;2023-06-10T00:31:58;21.20;72.40
48998;DHT22;34807;51.456;7.244;2023-06-10T00:34:24;21.20;72.60
48998;DHT22;34807;51.456;7.244;2023-06-10T00:36:50;21.20;73.00
48998;DHT22;34807;51.456;7.244;2023-06-10T00:39:15;21.20;73.00
48998;DHT22;34807;51.456;7.244;2023-06-10T00:41:42;21.10;72.90
48998;DHT22;34807;51.456;7.244;2023-06-10T00:44:07;21.10;73.00
48998;DHT22;34807;51.456;7.244;2023-06-10T00:46:33;21.10;72.80
48998;DHT22;34807;51.456;7.244;2023-06-10T00:48:59;21.00;72.90
48998;DHT22;34807;51.456;7.244;2023-06-10T00:51:25;21.00;73.10
48998;DHT22;34807;51.456;7.244;2023-06-10T00:53:51;21.00;73.10
48998;DHT22;34807;51.456;7.244;2023-06-10T00:56:17;21.00;73.30
48998;DHT22;34807;51.456;7.244;2023-06-10T00:58:43;20.90;73.40
48998;DHT22;34807;51.456;7.244;2023-06-10T01:01:08;20.90;73.50
48998;DHT22;34807;51.456;7.244;2023-06-10T01:03:36;20.80;73.50
48998;DHT22;34807;51.456;7.244;2023-06-10T01:08:41;20.80;73.60
48998;DHT22;34807;51.456;7.244;2023-06-10T01:11:17;20.80;73.40
48998;DHT22;34807;51.456;7.244;2023-06-10T01:13:44;20.80;73.70
48998;DHT22;34807;51.456;7.244;2023-06-10T01:16:10;20.70;73.70
48998;DHT22;34807;51.456;7.244;2023-06-10T01:18:36;20.70;73.80
48998;DHT22;34807;51.456;7.244;2023-06-10T01:21:04;20.70;73.70
48998;DHT22;34807;51.456;7.244;2023-06-10T01:23:29;20.70;74.30
48998;DHT22;34807;51.456;7.244;2023-06-10T01:26:06;20.60;74.00
48998;DHT22;34807;51.456;7.244;2023-06-10T01:33:54;20.60;74.10
48998;DHT22;34807;51.456;7.244;2023-06-10T01:36:20;20.50;74.40
48998;DHT22;34807;51.456;7.244;2023-06-10T01:38:47;20.50;74.60
48998;DHT22;34807;51.456;7.244;2023-06-10T01:41:13;20.50;74.60
48998;DHT22;34807;51.456;7.244;2023-06-10T01:43:39;20.50;74.80
48998;DHT22;34807;51.456;7.244;2023-06-10T01:46:05;20.40;74.60
48998;DHT22;34807;51.456;7.244;2023-06-10T01:48:31;20.40;74.80
48998;DHT22;34807;51.456;7.244;2023-06-10T01:50:57;20.40;74.80
48998;DHT22;34807;51.456;7.244;2023-06-10T01:53:22;20.30;74.70
48998;DHT22;34807;51.456;7.244;2023-06-10T01:55:48;20.30;74.80
48998;DHT22;34807;51.456;7.244;2023-06-10T01:58:13;20.30;75.00
48998;DHT22;34807;51.456;7.244;2023-06-10T02:00:39;20.20;75.10
48998;DHT22;34807;51.456;7.244;2023-06-10T02:03:05;20.20;75.10
48998;DHT22;34807;51.456;7.244;2023-06-10T02:05:30;20.20;75.20
48998;DHT22;34807;51.456;7.244;2023-06-10T02:07:56;20.20;75.20
48998;DHT22;34807;51.456;7.244;2023-06-10T02:10:21;20.20;75.20
48998;DHT22;34807;51.456;7.244;2023-06-10T02:12:47;20.10;75.20
48998;DHT22;34807;51.456;7.244;2023-06-10T02:15:12;20.10;75.70
48998;DHT22;34807;51.456;7.244;2023-06-10T02:17:38;20.10;75.80
48998;DHT22;34807;51.456;7.244;2023-06-10T02:20:04;20.10;75.30
48998;DHT22;34807;51.456;7.244;2023-06-10T02:22:32;20.10;75.90
48998;DHT22;34807;51.456;7.244;2023-06-10T02:24:57;20.00;76.00
48998;DHT22;34807;51.456;7.244;2023-06-10T02:27:23;20.00;76.20
48998;DHT22;34807;51.456;7.244;2023-06-10T02:29:48;20.00;76.00
48998;DHT22;34807;51.456;7.244;2023-06-10T02:32:14;20.00;76.20
48998;DHT22;34807;51.456;7.244;2023-06-10T02:34:40;19.90;76.10
48998;DHT22;34807;51.456;7.244;2023-06-10T02:37:08;19.90;76.40
48998;DHT22;34807;51.456;7.244;2023-06-10T02:39:33;19.90;76.40
48998;DHT22;34807;51.456;7.244;2023-06-10T02:41:59;19.90;76.30
48998;DHT22;34807;51.456;7.244;2023-06-10T02:44:25;19.90;76.70
48998;DHT22;34807;51.456;7.244;2023-06-10T02:46:50;19.80;76.60
48998;DHT22;34807;51.456;7.244;2023-06-10T02:49:16;19.80;76.60
48998;DHT22;34807;51.456;7.244;2023-06-10T02:51:41;19.80;76.90
48998;DHT22;34807;51.456;7.244;2023-06-10T02:54:07;19.80;76.70
48998;DHT22;34807;51.456;7.244;2023-06-10T02:56:32;19.80;77.40
48998;DHT22;34807;51.456;7.244;2023-06-10T02:58:58;19.70;76.80
48998;DHT22;34807;51.456;7.244;2023-06-10T03:01:24;19.70;76.90
48998;DHT22;34807;51.456;7.244;2023-06-10T03:03:49;19.70;77.20
48998;DHT22;34807;51.456;7.244;2023-06-10T03:06:15;19.70;77.20
48998;DHT22;34807;51.456;7.244;2023-06-10T03:08:41;19.60;77.30
48998;DHT22;34807;51.456;7.244;2023-06-10T03:11:06;19.60;77.40
48998;DHT22;34807;51.456;7.244;2023-06-10T03:13:32;19.60;77.10
48998;DHT22;34807;51.456;7.244;2023-06-10T03:15:58;19.60;77.10
48998;DHT22;34807;51.456;7.244;2023-06-10T03:18:27;19.60;77.30
48998;DHT22;34807;51.456;7.244;2023-06-10T03:20:53;19.50;77.70
48998;DHT22;34807;51.456;7.244;2023-06-10T03:23:18;19.50;77.70
48998;DHT22;34807;51.456;7.244;2023-06-10T03:25:44;19.50;77.70
48998;DHT22;34807;51.456;7.244;2023-06-10T03:28:10;19.50;77.70
48998;DHT22;34807;51.456;7.244;2023-06-10T03:30:36;19.40;77.80
48998;DHT22;34807;51.456;7.244;2023-06-10T03:33:01;19.40;77.60
48998;DHT22;34807;51.456;7.244;2023-06-10T03:35:27;19.40;77.60
48998;DHT22;34807;51.456;7.244;2023-06-10T03:37:52;19.40;77.80
48998;DHT22;34807;51.456;7.244;2023-06-10T03:40:18;19.40;78.00
48998;DHT22;34807;51.456;7.244;2023-06-10T03:42:43;19.40;78.20
48998;DHT22;34807;51.456;7.244;2023-06-10T03:45:09;19.40;78.10
48998;DHT22;34807;51.456;7.244;2023-06-10T03:47:35;19.40;78.20
48998;DHT22;34807;51.456;7.244;2023-06-10T03:50:01;19.30;78.10
48998;DHT22;34807;51.456;7.244;2023-06-10T03:52:28;19.30;78.00
48998;DHT22;34807;51.456;7.244;2023-06-10T03:54:54;19.30;78.20
48998;DHT22;34807;51.456;7.244;2023-06-10T03:57:19;19.30;78.30
48998;DHT22;34807;51.456;7.244;2023-06-10T03:59:45;19.30;78.50
48998;DHT22;34807;51.456;7.244;2023-06-10T04:02:10;19.30;78.50
48998;DHT22;34807;51.456;7.244;2023-06-10T04:04:36;19.30;78.40
48998;DHT22;34807;51.456;7.244;2023-06-10T04:07:03;19.20;78.30
48998;DHT22;34807;51.456;7.244;2023-06-10T04:09:28;19.20;78.60
48998;DHT22;34807;51.456;7.244;2023-06-10T04:11:54;19.20;78.70
48998;DHT22;34807;51.456;7.244;2023-06-10T04:14:19;19.20;78.70
48998;DHT22;34807;51.456;7.244;2023-06-10T04:16:45;19.20;78.80
48998;DHT22;34807;51.456;7.244;2023-06-10T04:19:10;19.20;78.80
48998;DHT22;34807;51.456;7.244;2023-06-10T04:21:36;19.20;78.80
48998;DHT22;34807;51.456;7.244;2023-06-10T04:24:01;19.20;78.90
48998;DHT22;34807;51.456;7.244;2023-06-10T04:26:27;19.20;78.80
48998;DHT22;34807;51.456;7.244;2023-06-10T04:28:53;19.10;78.70
48998;DHT22;34807;51.456;7.244;2023-06-10T04:31:18;19.10;78.70
48998;DHT22;34807;51.456;7.244;2023-06-10T04:33:44;19.10;78.80
48998;DHT22;34807;51.456;7.244;2023-06-10T04:36:10;19.10;79.00
48998;DHT22;34807;51.456;7.244;2023-06-10T04:38:36;19.10;78.90
48998;DHT22;34807;51.456;7.244;2023-06-10T04:41:01;19.10;79.00
48998;DHT22;34807;51.456;7.244;2023-06-10T04:43:27;19.10;78.70
48998;DHT22;34807;51.456;7.244;2023-06-10T04:45:54;19.10;78.50
48998;DHT22;34807;51.456;7.244;2023-06-10T04:48:19;19.10;78.90
48998;DHT22;34807;51.456;7.244;2023-06-10T04:50:45;19.10;78.70
48998;DHT22;34807;51.456;7.244;2023-06-10T04:53:10;19.10;79.00
48998;DHT22;34807;51.456;7.244;2023-06-10T04:55:36;19.10;79.10
48998;DHT22;34807;51.456;7.244;2023-06-10T04:58:01;19.10;79.00
48998;DHT22;34807;51.456;7.244;2023-06-10T05:00:27;19.10;78.90
48998;DHT22;34807;51.456;7.244;2023-06-10T05:02:52;19.10;79.10
48998;DHT22;34807;51.456;7.244;2023-06-10T05:05:18;19.10;79.00
48998;DHT22;34807;51.456;7.244;2023-06-10T05:07:44;19.10;79.00
48998;DHT22;34807;51.456;7.244;2023-06-10T05:10:09;19.10;79.10
48998;DHT22;34807;51.456;7.244;2023-06-10T05:12:35;19.10;78.80
48998;DHT22;34807;51.456;7.244;2023-06-10T05:15:01;19.10;79.00
48998;DHT22;34807;51.456;7.244;2023-06-10T05:17:26;19.10;79.20
48998;DHT22;34807;51.456;7.244;2023-06-10T05:19:52;19.10;78.90
48998;DHT22;34807;51.456;7.244;2023-06-10T05:22:18;19.10;79.20
48998;DHT22;34807;51.456;7.244;2023-06-10T05:24:44;19.10;79.00
48998;DHT22;34807;51.456;7.244;2023-06-10T05:27:10;19.10;79.00
48998;DHT22;34807;51.456;7.244;2023-06-10T05:29:35;19.10;79.20
48998;DHT22;34807;51.456;7.244;2023-06-10T05:32:01;19.10;78.80
48998;DHT22;34807;51.456;7.244;2023-06-10T05:34:31;19.10;79.00
48998;DHT22;34807;51.456;7.244;2023-06-10T05:36:58;19.10;78.90
48998;DHT22;34807;51.456;7.244;2023-06-10T05:39:24;19.10;78.60
48998;DHT22;34807;51.456;7.244;2023-06-10T05:41:49;19.10;78.70
48998;DHT22;34807;51.456;7.244;2023-06-10T05:44:15;19.10;78.80
48998;DHT22;34807;51.456;7.244;2023-06-10T05:46:40;19.10;78.80
48998;DHT22;34807;51.456;7.244;2023-06-10T05:49:06;19.10;78.60
48998;DHT22;34807;51.456;7.244;2023-06-10T05:51:31;19.10;78.80
48998;DHT22;34807;51.456;7.244;2023-06-10T05:53:57;19.10;78.70
48998;DHT22;34807;51.456;7.244;2023-06-10T05:56:22;19.10;78.60
48998;DHT22;34807;51.456;7.244;2023-06-10T05:58:48;19.10;78.70
48998;DHT22;34807;51.456;7.244;2023-06-10T06:01:14;19.10;78.70
48998;DHT22;34807;51.456;7.244;2023-06-10T06:03:39;19.10;78.80
48998;DHT22;34807;51.456;7.244;2023-06-10T06:06:05;19.10;78.80
48998;DHT22;34807;51.456;7.244;2023-06-10T06:08:30;19.20;78.70
48998;DHT22;34807;51.456;7.244;2023-06-10T06:10:56;19.20;78.60
48998;DHT22;34807;51.456;7.244;2023-06-10T06:13:22;19.20;78.60
48998;DHT22;34807;51.456;7.244;2023-06-10T06:15:47;19.20;78.60
48998;DHT22;34807;51.456;7.244;2023-06-10T06:18:13;19.20;78.70
48998;DHT22;34807;51.456;7.244;2023-06-10T06:20:38;19.20;78.80
48998;DHT22;34807;51.456;7.244;2023-06-10T06:23:04;19.20;78.70
48998;DHT22;34807;51.456;7.244;2023-06-10T06:25:29;19.20;78.60
48998;DHT22;34807;51.456;7.244;2023-06-10T06:27:55;19.20;78.50
48998;DHT22;34807;51.456;7.244;2023-06-10T06:30:20;19.20;78.50
48998;DHT22;34807;51.456;7.244;2023-06-10T06:32:46;19.30;78.40
48998;DHT22;34807;51.456;7.244;2023-06-10T06:35:11;19.30;78.60
48998;DHT22;34807;51.456;7.244;2023-06-10T06:37:37;19.30;78.70
48998;DHT22;34807;51.456;7.244;2023-06-10T06:40:02;19.30;78.50
48998;DHT22;34807;51.456;7.244;2023-06-10T06:42:29;19.30;78.40
48998;DHT22;34807;51.456;7.244;2023-06-10T06:44:54;19.30;78.30
48998;DHT22;34807;51.456;7.244;2023-06-10T06:47:20;19.30;78.00
48998;DHT22;34807;51.456;7.244;2023-06-10T06:49:46;19.40;78.40
48998;DHT22;34807;51.456;7.244;2023-06-10T06:52:12;19.30;78.30
48998;DHT22;34807;51.456;7.244;2023-06-10T06:54:37;19.30;78.30
48998;DHT22;34807;51.456;7.244;2023-06-10T06:57:03;19.40;78.30
48998;DHT22;34807;51.456;7.244;2023-06-10T06:59:28;19.40;78.20
48998;DHT22;34807;51.456;7.244;2023-06-10T07:01:54;19.40;78.10
48998;DHT22;34807;51.456;7.244;2023-06-10T07:04:20;19.40;78.10
48998;DHT22;34807;51.456;7.244;2023-06-10T07:06:47;19.40;78.00
48998;DHT22;34807;51.456;7.244;2023-06-10T07:09:12;19.50;78.10
48998;DHT22;34807;51.456;7.244;2023-06-10T07:11:38;19.50;78.00
48998;DHT22;34807;51.456;7.244;2023-06-10T07:14:04;19.50;78.00
48998;DHT22;34807;51.456;7.244;2023-06-10T07:16:29;19.50;78.10
48998;DHT22;34807;51.456;7.244;2023-06-10T07:18:55;19.50;77.90
48998;DHT22;34807;51.456;7.244;2023-06-10T07:21:20;19.50;78.10
48998;DHT22;34807;51.456;7.244;2023-06-10T07:23:47;19.50;77.70
48998;DHT22;34807;51.456;7.244;2023-06-10T07:26:13;19.50;77.80
48998;DHT22;34807;51.456;7.244;2023-06-10T07:28:41;19.60;77.60
48998;DHT22;34807;51.456;7.244;2023-06-10T07:31:07;19.60;77.70
48998;DHT22;34807;51.456;7.244;2023-06-10T07:33:33;19.60;77.50
48998;DHT22;34807;51.456;7.244;2023-06-10T07:35:58;19.60;77.40
48998;DHT22;34807;51.456;7.244;2023-06-10T07:38:25;19.60;77.30
48998;DHT22;34807;51.456;7.244;2023-06-10T07:40:50;19.60;77.30
48998;DHT22;34807;51.456;7.244;2023-06-10T07:43:16;19.70;77.30
48998;DHT22;34807;51.456;7.244;2023-06-10T07:45:42;19.70;77.30
48998;DHT22;34807;51.456;7.244;2023-06-10T07:48:07;19.70;77.20
48998;DHT22;34807;51.456;7.244;2023-06-10T07:50:33;19.70;77.10
48998;DHT22;34807;51.456;7.244;2023-06-10T07:52:59;19.80;77.00
48998;DHT22;34807;51.456;7.244;2023-06-10T07:55:25;19.80;76.90
48998;DHT22;34807;51.456;7.244;2023-06-10T07:57:53;19.80;76.90
48998;DHT22;34807;51.456;7.244;2023-06-10T08:00:19;19.80;76.80
48998;DHT22;34807;51.456;7.244;2023-06-10T08:02:45;19.90;76.80
48998;DHT22;34807;51.456;7.244;2023-06-10T08:05:10;19.90;76.80
48998;DHT22;34807;51.456;7.244;2023-06-10T08:07:36;20.00;76.70
48998;DHT22;34807;51.456;7.244;2023-06-10T08:10:02;19.90;76.60
48998;DHT22;34807;51.456;7.244;2023-06-10T08:12:28;20.00;76.60
48998;DHT22;34807;51.456;7.244;2023-06-10T08:14:53;20.00;76.50
48998;DHT22;34807;51.456;7.244;2023-06-10T08:17:20;20.00;76.40
48998;DHT22;34807;51.456;7.244;2023-06-10T08:19:45;20.10;76.40
48998;DHT22;34807;51.456;7.244;2023-06-10T08:22:11;20.10;76.30
48998;DHT22;34807;51.456;7.244;2023-06-10T08:24:37;20.10;76.20
48998;DHT22;34807;51.456;7.244;2023-06-10T08:27:02;20.20;76.20
48998;DHT22;34807;51.456;7.244;2023-06-10T08:29:28;20.20;76.20
48998;DHT22;34807;51.456;7.244;2023-06-10T08:31:55;20.20;76.10
48998;DHT22;34807;51.456;7.244;2023-06-10T08:34:20;20.30;76.10
48998;DHT22;34807;51.456;7.244;2023-06-10T08:36:45;20.30;75.90
48998;DHT22;34807;51.456;7.244;2023-06-10T08:39:11;20.40;75.90
48998;DHT22;34807;51.456;7.244;2023-06-10T08:41:39;20.40;75.80
48998;DHT22;34807;51.456;7.244;2023-06-10T08:44:08;20.50;75.70
48998;DHT22;34807;51.456;7.244;2023-06-10T08:46:34;20.50;75.60
48998;DHT22;34807;51.456;7.244;2023-06-10T08:49:01;20.50;75.50
48998;DHT22;34807;51.456;7.244;2023-06-10T08:51:27;20.60;75.50
48998;DHT22;34807;51.456;7.244;2023-06-10T08:53:58;20.60;75.30
48998;DHT22;34807;51.456;7.244;2023-06-10T08:56:26;20.70;75.30
48998;DHT22;34807;51.456;7.244;2023-06-10T08:58:52;20.70;75.40
48998;DHT22;34807;51.456;7.244;2023-06-10T09:01:18;20.80;75.30
48998;DHT22;34807;51.456;7.244;2023-06-10T09:03:44;20.80;75.20
48998;DHT22;34807;51.456;7.244;2023-06-10T09:06:10;20.90;75.10
48998;DHT22;34807;51.456;7.244;2023-06-10T09:08:35;20.90;75.00
48998;DHT22;34807;51.456;7.244;2023-06-10T09:11:01;20.90;74.90
48998;DHT22;34807;51.456;7.244;2023-06-10T09:13:26;21.00;75.00
48998;DHT22;34807;51.456;7.244;2023-06-10T09:15:52;21.00;74.80
48998;DHT22;34807;51.456;7.244;2023-06-10T09:18:17;21.10;74.80
48998;DHT22;34807;51.456;7.244;2023-06-10T09:20:43;21.10;74.80
48998;DHT22;34807;51.456;7.244;2023-06-10T09:23:08;21.20;74.80
48998;DHT22;34807;51.456;7.244;2023-06-10T09:25:35;21.20;74.70
48998;DHT22;34807;51.456;7.244;2023-06-10T09:28:02;21.30;74.50
48998;DHT22;34807;51.456;7.244;2023-06-10T09:30:34;21.30;74.60
48998;DHT22;34807;51.456;7.244;2023-06-10T09:33:02;21.40;74.50
48998;DHT22;34807;51.456;7.244;2023-06-10T09:35:28;21.50;74.40
48998;DHT22;34807;51.456;7.244;2023-06-10T09:37:55;21.50;74.30
48998;DHT22;34807;51.456;7.244;2023-06-10T09:40:20;21.60;74.50
48998;DHT22;34807;51.456;7.244;2023-06-10T09:42:46;21.60;74.30
48998;DHT22;34807;51.456;7.244;2023-06-10T09:45:18;21.70;74.20
48998;DHT22;34807;51.456;7.244;2023-06-10T09:47:45;21.70;74.30
48998;DHT22;34807;51.456;7.244;2023-06-10T09:50:11;21.80;74.60
48998;DHT22;34807;51.456;7.244;2023-06-10T09:52:36;21.90;74.20
48998;DHT22;34807;51.456;7.244;2023-06-10T09:55:02;21.90;74.30
48998;DHT22;34807;51.456;7.244;2023-06-10T09:57:31;22.00;74.30
48998;DHT22;34807;51.456;7.244;2023-06-10T10:00:10;22.00;74.10
48998;DHT22;34807;51.456;7.244;2023-06-10T10:02:43;22.20;74.10
48998;DHT22;34807;51.456;7.244;2023-06-10T10:05:09;22.20;74.00
48998;DHT22;34807;51.456;7.244;2023-06-10T10:07:35;22.30;74.00
48998;DHT22;34807;51.456;7.244;2023-06-10T10:10:00;22.30;74.00
48998;DHT22;34807;51.456;7.244;2023-06-10T10:12:26;22.40;73.90
48998;DHT22;34807;51.456;7.244;2023-06-10T10:14:51;22.50;73.90
48998;DHT22;34807;51.456;7.244;2023-06-10T10:17:17;22.60;73.90
48998;DHT22;34807;51.456;7.244;2023-06-10T10:19:49;22.70;74.10
48998;DHT22;34807;51.456;7.244;2023-06-10T10:22:18;22.70;73.90
48998;DHT22;34807;51.456;7.244;2023-06-10T10:24:53;22.80;73.90
48998;DHT22;34807;51.456;7.244;2023-06-10T10:27:26;22.90;73.80
48998;DHT22;34807;51.456;7.244;2023-06-10T10:29:52;23.00;73.70
48998;DHT22;34807;51.456;7.244;2023-06-10T10:32:20;23.10;73.90
48998;DHT22;34807;51.456;7.244;2023-06-10T10:34:57;23.20;73.80
48998;DHT22;34807;51.456;7.244;2023-06-10T10:37:26;23.20;73.60
48998;DHT22;34807;51.456;7.244;2023-06-10T10:39:52;23.30;73.90
48998;DHT22;34807;51.456;7.244;2023-06-10T10:42:18;23.40;73.70
48998;DHT22;34807;51.456;7.244;2023-06-10T10:44:44;23.50;73.80
48998;DHT22;34807;51.456;7.244;2023-06-10T10:47:09;23.60;73.80
48998;DHT22;34807;51.456;7.244;2023-06-10T10:49:35;23.70;73.80
48998;DHT22;34807;51.456;7.244;2023-06-10T10:52:02;23.80;74.00
48998;DHT22;34807;51.456;7.244;2023-06-10T11:02:08;24.30;73.20
48998;DHT22;34807;51.456;7.244;2023-06-10T11:04:34;24.40;73.20
48998;DHT22;34807;51.456;7.244;2023-06-10T11:07:05;24.50;73.30
48998;DHT22;34807;51.456;7.244;2023-06-10T11:09:31;24.60;73.30
48998;DHT22;34807;51.456;7.244;2023-06-10T11:11:57;24.70;73.60
48998;DHT22;34807;51.456;7.244;2023-06-10T11:14:27;24.80;73.30
48998;DHT22;34807;51.456;7.244;2023-06-10T11:16:58;25.00;73.30
48998;DHT22;34807;51.456;7.244;2023-06-10T11:22:06;25.20;73.30
48998;DHT22;34807;51.456;7.244;2023-06-10T11:24:32;25.30;73.10
48998;DHT22;34807;51.456;7.244;2023-06-10T11:29:55;25.50;73.00
48998;DHT22;34807;51.456;7.244;2023-06-10T11:32:20;25.60;72.80
48998;DHT22;34807;51.456;7.244;2023-06-10T11:34:51;25.70;72.70
48998;DHT22;34807;51.456;7.244;2023-06-10T11:37:17;25.70;72.20
48998;DHT22;34807;51.456;7.244;2023-06-10T11:39:42;25.80;72.50
48998;DHT22;34807;51.456;7.244;2023-06-10T11:42:08;25.90;72.60
48998;DHT22;34807;51.456;7.244;2023-06-10T11:44:34;26.00;72.60
48998;DHT22;34807;51.456;7.244;2023-06-10T11:47:03;26.00;72.40
48998;DHT22;34807;51.456;7.244;2023-06-10T11:49:29;26.10;72.40
48998;DHT22;34807;51.456;7.244;2023-06-10T11:51:55;26.20;72.20
48998;DHT22;34807;51.456;7.244;2023-06-10T11:54:21;26.30;72.00
48998;DHT22;34807;51.456;7.244;2023-06-10T11:56:47;26.40;72.30
48998;DHT22;34807;51.456;7.244;2023-06-10T11:59:13;26.50;71.80
48998;DHT22;34807;51.456;7.244;2023-06-10T12:01:43;26.60;71.70
48998;DHT22;34807;51.456;7.244;2023-06-10T12:04:10;26.60;71.50
48998;DHT22;34807;51.456;7.244;2023-06-10T12:09:14;26.70;70.90
48998;DHT22;34807;51.456;7.244;2023-06-10T12:11:39;26.80;71.50
48998;DHT22;34807;51.456;7.244;2023-06-10T12:14:05;26.90;71.20
48998;DHT22;34807;51.456;7.244;2023-06-10T12:16:31;26.90;71.30
48998;DHT22;34807;51.456;7.244;2023-06-10T12:19:03;27.10;71.10
48998;DHT22;34807;51.456;7.244;2023-06-10T12:21:29;27.20;69.90
48998;DHT22;34807;51.456;7.244;2023-06-10T12:24:02;27.20;70.60
48998;DHT22;34807;51.456;7.244;2023-06-10T12:26:35;27.30;70.90
48998;DHT22;34807;51.456;7.244;2023-06-10T12:29:02;27.40;70.90
48998;DHT22;34807;51.456;7.244;2023-06-10T12:31:27;27.40;70.70
48998;DHT22;34807;51.456;7.244;2023-06-10T12:34:08;27.50;70.90
48998;DHT22;34807;51.456;7.244;2023-06-10T12:36:34;27.50;70.40
48998;DHT22;34807;51.456;7.244;2023-06-10T12:39:03;27.60;70.20
48998;DHT22;34807;51.456;7.244;2023-06-10T12:41:29;27.70;70.40
48998;DHT22;34807;51.456;7.244;2023-06-10T12:43:54;27.70;70.80
48998;DHT22;34807;51.456;7.244;2023-06-10T12:46:20;27.80;70.00
48998;DHT22;34807;51.456;7.244;2023-06-10T12:48:49;27.90;69.60
48998;DHT22;34807;51.456;7.244;2023-06-10T12:51:16;28.00;68.60
48998;DHT22;34807;51.456;7.244;2023-06-10T12:53:42;28.10;67.70
48998;DHT22;34807;51.456;7.244;2023-06-10T12:56:08;28.10;69.90
48998;DHT22;34807;51.456;7.244;2023-06-10T12:58:34;28.20;70.00
48998;DHT22;34807;51.456;7.244;2023-06-10T13:01:00;28.20;69.90
48998;DHT22;34807;51.456;7.244;2023-06-10T13:03:25;28.30;69.10
48998;DHT22;34807;51.456;7.244;2023-06-10T13:05:51;28.30;69.60
48998;DHT22;34807;51.456;7.244;2023-06-10T13:08:17;28.40;69.10
48998;DHT22;34807;51.456;7.244;2023-06-10T13:10:42;28.40;68.70
48998;DHT22;34807;51.456;7.244;2023-06-10T13:13:08;28.50;69.10
48998;DHT22;34807;51.456;7.244;2023-06-10T13:15:34;28.50;69.20
48998;DHT22;34807;51.456;7.244;2023-06-10T13:18:03;28.60;68.90
48998;DHT22;34807;51.456;7.244;2023-06-10T13:20:29;28.60;68.70
48998;DHT22;34807;51.456;7.244;2023-06-10T13:22:55;28.70;68.60
48998;DHT22;34807;51.456;7.244;2023-06-10T13:25:20;28.70;68.70
48998;DHT22;34807;51.456;7.244;2023-06-10T13:27:46;28.80;68.70
48998;DHT22;34807;51.456;7.244;2023-06-10T13:30:11;28.80;68.90
48998;DHT22;34807;51.456;7.244;2023-06-10T13:32:37;28.80;68.10
48998;DHT22;34807;51.456;7.244;2023-06-10T13:35:02;28.90;68.70
48998;DHT22;34807;51.456;7.244;2023-06-10T13:37:28;28.90;67.50
48998;DHT22;34807;51.456;7.244;2023-06-10T13:39:54;29.10;67.00
48998;DHT22;34807;51.456;7.244;2023-06-10T13:42:20;29.10;67.60
48998;DHT22;34807;51.456;7.244;2023-06-10T13:44:46;29.20;65.10
48998;DHT22;34807;51.456;7.244;2023-06-10T13:47:12;29.20;67.50
48998;DHT22;34807;51.456;7.244;2023-06-10T13:49:38;29.30;66.50
48998;DHT22;34807;51.456;7.244;2023-06-10T13:52:04;29.20;67.70
48998;DHT22;34807;51.456;7.244;2023-06-10T13:54:33;29.30;66.40
48998;DHT22;34807;51.456;7.244;2023-06-10T13:56:58;29.40;67.10
48998;DHT22;34807;51.456;7.244;2023-06-10T13:59:25;29.40;66.30
48998;DHT22;34807;51.456;7.244;2023-06-10T14:01:51;29.50;66.10
48998;DHT22;34807;51.456;7.244;2023-06-10T14:04:16;29.50;65.80
48998;DHT22;34807;51.456;7.244;2023-06-10T14:06:42;29.60;65.20
48998;DHT22;34807;51.456;7.244;2023-06-10T14:09:07;29.60;65.20
48998;DHT22;34807;51.456;7.244;2023-06-10T14:11:33;29.70;64.20
48998;DHT22;34807;51.456;7.244;2023-06-10T14:13:58;29.70;65.80
48998;DHT22;34807;51.456;7.244;2023-06-10T14:16:26;29.70;65.00
48998;DHT22;34807;51.456;7.244;2023-06-10T14:18:51;29.80;64.10
48998;DHT22;34807;51.456;7.244;2023-06-10T14:21:17;29.90;64.90
48998;DHT22;34807;51.456;7.244;2023-06-10T14:23:42;29.90;64.80
48998;DHT22;34807;51.456;7.244;2023-06-10T14:26:11;29.90;65.00
48998;DHT22;34807;51.456;7.244;2023-06-10T14:28:37;30.00;65.00
48998;DHT22;34807;51.456;7.244;2023-06-10T14:31:02;30.00;64.40
48998;DHT22;34807;51.456;7.244;2023-06-10T14:33:28;30.10;63.60
48998;DHT22;34807;51.456;7.244;2023-06-10T14:35:53;30.10;64.30
48998;DHT22;34807;51.456;7.244;2023-06-10T14:38:19;30.20;64.10
48998;DHT22;34807;51.456;7.244;2023-06-10T14:40:45;30.30;63.50
48998;DHT22;34807;51.456;7.244;2023-06-10T14:43:10;30.40;61.10
48998;DHT22;34807;51.456;7.244;2023-06-10T14:45:36;30.50;62.50
48998;DHT22;34807;51.456;7.244;2023-06-10T14:48:03;30.60;62.90
48998;DHT22;34807;51.456;7.244;2023-06-10T14:50:28;30.70;63.20
48998;DHT22;34807;51.456;7.244;2023-06-10T14:52:54;30.80;60.90
48998;DHT22;34807;51.456;7.244;2023-06-10T14:55:19;30.90;62.50
48998;DHT22;34807;51.456;7.244;2023-06-10T14:57:45;31.00;62.40
48998;DHT22;34807;51.456;7.244;2023-06-10T15:00:11;31.10;62.10
48998;DHT22;34807;51.456;7.244;2023-06-10T15:02:37;31.30;61.90
48998;DHT22;34807;51.456;7.244;2023-06-10T15:05:02;31.50;59.70
48998;DHT22;34807;51.456;7.244;2023-06-10T15:07:28;31.70;61.30
48998;DHT22;34807;51.456;7.244;2023-06-10T15:09:54;31.80;60.90
48998;DHT22;34807;51.456;7.244;2023-06-10T15:12:19;31.90;59.70
48998;DHT22;34807;51.456;7.244;2023-06-10T15:14:45;32.00;60.60
48998;DHT22;34807;51.456;7.244;2023-06-10T15:17:10;32.20;60.40
48998;DHT22;34807;51.456;7.244;2023-06-10T15:19:36;32.40;60.00
48998;DHT22;34807;51.456;7.244;2023-06-10T15:22:01;32.50;60.20
48998;DHT22;34807;51.456;7.244;2023-06-10T15:24:27;32.60;60.00
48998;DHT22;34807;51.456;7.244;2023-06-10T15:26:52;32.80;58.50
48998;DHT22;34807;51.456;7.244;2023-06-10T15:29:18;33.00;59.50
48998;DHT22;34807;51.456;7.244;2023-06-10T15:31:43;33.10;59.10
48998;DHT22;34807;51.456;7.244;2023-06-10T15:34:09;33.30;58.80
48998;DHT22;34807;51.456;7.244;2023-06-10T15:36:34;33.40;58.70
48998;DHT22;34807;51.456;7.244;2023-06-10T15:39:02;33.60;58.40
48998;DHT22;34807;51.456;7.244;2023-06-10T15:41:28;33.70;57.90
48998;DHT22;34807;51.456;7.244;2023-06-10T15:43:54;33.90;58.00
48998;DHT22;34807;51.456;7.244;2023-06-10T15:46:19;34.00;57.70